Time,TemperatureF,DewpointF,PressureIn,WindDirection,WindDirectionDegrees,WindSpeedMPH,WindSpeedGustMPH,Humidity,HourlyPrecipIn,Conditions,Clouds,dailyrainin,SolarRadiationWatts/m^2,SoftwareType,DateUTC
2013-04-20 00:21:00,37.0,30.0,-100.00,WNW,301,10.0,14.0,77,0.00,,,0.00,1.000000,,2013-04-20 07:21:00,
2013-04-20 00:32:00,37.0,30.0,-100.00,WNW,301,10.0,14.0,77,0.00,,,0.00,1.000000,,2013-04-20 07:32:00,
2013-04-20 00:42:00,37.0,30.0,-100.00,WNW,301,10.0,14.0,77,0.00,,,0.00,1.000000,,2013-04-20 07:42:00,
2013-04-20 00:52:00,37.0,30.0,-100.00,WNW,301,10.0,14.0,77,0.00,,,0.00,1.000000,,2013-04-20 07:52:00,
2013-04-20 01:21:00,36.0,30.0,-100.00,NE,55,5.0,14.0,80,0.00,,,0.00,1.000000,,2013-04-20 08:21:00,
2013-04-20 01:31:00,36.0,30.0,-100.00,NE,55,5.0,14.0,80,0.00,,,0.00,1.000000,,2013-04-20 08:31:00,
2013-04-20 01:42:00,36.0,30.0,-100.00,NE,55,5.0,14.0,80,0.00,,,0.00,1.000000,,2013-04-20 08:42:00,
2013-04-20 01:51:00,36.0,30.0,-100.00,NE,55,5.0,14.0,80,0.00,,,0.00,1.000000,,2013-04-20 08:51:00,
2013-04-20 02:21:00,35.0,31.0,-100.00,NW,324,6.0,10.0,85,0.00,,,0.00,1.000000,,2013-04-20 09:21:00,
2013-04-20 02:32:00,35.0,31.0,-100.00,NW,324,6.0,10.0,85,0.00,,,0.00,1.000000,,2013-04-20 09:32:00,
2013-04-20 02:43:00,35.0,31.0,-100.00,NW,324,6.0,10.0,85,0.00,,,0.00,1.000000,,2013-04-20 09:43:00,
2013-04-20 02:52:00,35.0,31.0,-100.00,NW,324,6.0,10.0,85,0.00,,,0.00,1.000000,,2013-04-20 09:52:00,
2013-04-20 03:23:00,33.0,30.0,-100.00,ENE,64,3.0,8.0,88,0.00,,,0.00,1.000000,,2013-04-20 10:23:00,
2013-04-20 03:33:00,33.0,30.0,-100.00,ENE,64,3.0,8.0,88,0.00,,,0.00,1.000000,,2013-04-20 10:33:00,
2013-04-20 03:42:00,33.0,30.0,-100.00,ENE,64,3.0,8.0,88,0.00,,,0.00,1.000000,,2013-04-20 10:42:00,
2013-04-20 03:52:00,33.0,30.0,-100.00,ENE,64,3.0,8.0,88,0.00,,,0.00,1.000000,,2013-04-20 10:52:00,
2013-04-20 04:23:00,31.0,29.0,-100.00,ESE,108,4.0,6.0,91,0.00,,,0.00,1.000000,,2013-04-20 11:23:00,
2013-04-20 04:31:00,31.0,29.0,-100.00,ESE,108,4.0,6.0,91,0.00,,,0.00,1.000000,,2013-04-20 11:31:00,
2013-04-20 04:42:00,31.0,29.0,-100.00,ESE,108,4.0,6.0,91,0.00,,,0.00,1.000000,,2013-04-20 11:42:00,
2013-04-20 04:52:00,31.0,29.0,-100.00,ESE,108,4.0,6.0,91,0.00,,,0.00,1.000000,,2013-04-20 11:52:00,
2013-04-20 05:22:00,31.0,28.0,-100.00,ESE,106,3.0,7.0,90,0.00,,,0.00,1.000000,,2013-04-20 12:22:00,
2013-04-20 05:32:00,31.0,28.0,-100.00,ESE,106,3.0,7.0,90,0.00,,,0.00,1.000000,,2013-04-20 12:32:00,
2013-04-20 05:42:00,31.0,28.0,-100.00,ESE,106,3.0,7.0,90,0.00,,,0.00,1.000000,,2013-04-20 12:42:00,
2013-04-20 05:51:00,31.0,28.0,-100.00,ESE,106,3.0,7.0,90,0.00,,,0.00,1.000000,,2013-04-20 12:51:00,
2013-04-20 07:21:00,27.0,26.0,-100.00,East,89,3.0,4.0,97,-99.99,,,0.00,9.000000,,2013-04-20 14:21:00,
2013-04-20 07:31:00,27.0,26.0,-100.00,East,89,3.0,4.0,97,-99.99,,,0.00,9.000000,,2013-04-20 14:31:00,
2013-04-20 07:42:00,27.0,26.0,-100.00,East,89,3.0,4.0,97,-99.99,,,0.00,9.000000,,2013-04-20 14:42:00,
2013-04-20 07:51:00,27.0,26.0,-100.00,East,89,3.0,4.0,97,-99.99,,,0.00,9.000000,,2013-04-20 14:51:00,
2013-04-20 08:21:00,30.0,27.0,-100.00,East,81,4.0,6.0,90,0.00,,,0.00,96.000000,,2013-04-20 15:21:00,
2013-04-20 08:33:00,30.0,27.0,-100.00,East,81,4.0,6.0,90,0.00,,,0.00,96.000000,,2013-04-20 15:33:00,
2013-04-20 08:43:00,30.0,27.0,-100.00,East,81,4.0,6.0,90,0.00,,,0.00,96.000000,,2013-04-20 15:43:00,
2013-04-20 08:53:00,30.0,27.0,-100.00,East,81,4.0,6.0,90,0.00,,,0.00,96.000000,,2013-04-20 15:53:00,
2013-04-20 09:23:00,36.0,32.0,-100.00,ESE,106,2.0,5.0,84,0.00,,,-99.99,189.000000,,2013-04-20 16:23:00,
2013-04-20 09:32:00,36.0,32.0,-100.00,ESE,106,2.0,5.0,84,0.00,,,-99.99,189.000000,,2013-04-20 16:32:00,
2013-04-20 09:42:00,36.0,32.0,-100.00,ESE,106,2.0,5.0,84,0.00,,,-99.99,189.000000,,2013-04-20 16:42:00,
2013-04-20 09:52:00,36.0,32.0,-100.00,ESE,106,2.0,5.0,84,0.00,,,-99.99,189.000000,,2013-04-20 16:52:00,
2013-04-20 10:22:00,46.0,33.0,-100.00,SSW,203,3.0,6.0,61,0.00,,,0.00,547.000000,,2013-04-20 17:22:00,
2013-04-20 10:33:00,46.0,33.0,-100.00,SSW,203,3.0,6.0,61,0.00,,,0.00,547.000000,,2013-04-20 17:33:00,
2013-04-20 10:42:00,46.0,33.0,-100.00,SSW,203,3.0,6.0,61,0.00,,,0.00,547.000000,,2013-04-20 17:42:00,
2013-04-20 10:52:00,46.0,33.0,-100.00,SSW,203,3.0,6.0,61,0.00,,,0.00,547.000000,,2013-04-20 17:52:00,
2013-04-20 11:22:00,50.0,32.0,-100.00,SW,235,6.0,9.0,49,0.00,,,0.00,736.000000,,2013-04-20 18:22:00,
2013-04-20 11:32:00,50.0,32.0,-100.00,SW,235,6.0,9.0,49,0.00,,,0.00,736.000000,,2013-04-20 18:32:00,
2013-04-20 11:41:00,50.0,32.0,-100.00,SW,235,6.0,9.0,49,0.00,,,0.00,736.000000,,2013-04-20 18:41:00,
2013-04-20 11:52:00,50.0,32.0,-100.00,SW,235,6.0,9.0,49,0.00,,,0.00,736.000000,,2013-04-20 18:52:00,
2013-04-20 12:21:00,54.0,19.0,-100.00,West,261,6.0,11.0,25,0.00,,,0.00,873.000000,,2013-04-20 19:21:00,
2013-04-20 12:32:00,54.0,19.0,-100.00,West,261,6.0,11.0,25,0.00,,,0.00,873.000000,,2013-04-20 19:32:00,
2013-04-20 12:42:00,54.0,19.0,-100.00,West,261,6.0,11.0,25,0.00,,,0.00,873.000000,,2013-04-20 19:42:00,
2013-04-20 13:21:00,57.0,23.0,-100.00,WSW,258,8.0,14.0,27,0.00,,,0.00,933.000000,,2013-04-20 20:21:00,
2013-04-20 13:32:00,57.0,23.0,-100.00,WSW,258,8.0,14.0,27,0.00,,,0.00,933.000000,,2013-04-20 20:32:00,
2013-04-20 13:42:00,57.0,23.0,-100.00,WSW,258,8.0,14.0,27,0.00,,,0.00,933.000000,,2013-04-20 20:42:00,
2013-04-20 13:51:00,57.0,23.0,-100.00,WSW,258,8.0,14.0,27,0.00,,,0.00,933.000000,,2013-04-20 20:51:00,
2013-04-20 15:22:00,60.0,28.0,-100.00,WSW,253,10.0,15.0,30,-99.99,,,0.00,917.000000,,2013-04-20 22:22:00,
2013-04-20 15:32:00,60.0,28.0,-100.00,WSW,253,10.0,15.0,30,-99.99,,,0.00,917.000000,,2013-04-20 22:32:00,
2013-04-20 15:42:00,60.0,28.0,-100.00,WSW,253,10.0,15.0,30,-99.99,,,0.00,917.000000,,2013-04-20 22:42:00,
2013-04-20 15:52:00,60.0,28.0,-100.00,WSW,253,10.0,15.0,30,-99.99,,,0.00,917.000000,,2013-04-20 22:52:00,
2013-04-20 16:22:00,61.0,29.0,-100.00,West,259,9.0,18.0,30,0.00,,,0.00,812.000000,,2013-04-20 23:22:00,
2013-04-20 16:32:00,61.0,29.0,-100.00,West,259,9.0,18.0,30,0.00,,,0.00,812.000000,,2013-04-20 23:32:00,
2013-04-20 16:41:00,61.0,29.0,-100.00,West,259,9.0,18.0,30,0.00,,,0.00,812.000000,,2013-04-20 23:41:00,
2013-04-20 16:52:00,61.0,29.0,-100.00,West,259,9.0,18.0,30,0.00,,,0.00,812.000000,,2013-04-20 23:52:00,
2013-04-20 17:21:00,60.0,29.0,-100.00,WNW,283,13.0,19.0,31,0.00,,,0.00,663.000000,,2013-04-21 00:21:00,
2013-04-20 17:32:00,60.0,29.0,-100.00,WNW,283,13.0,19.0,31,0.00,,,0.00,663.000000,,2013-04-21 00:32:00,
2013-04-20 17:42:00,60.0,29.0,-100.00,WNW,283,13.0,19.0,31,0.00,,,0.00,663.000000,,2013-04-21 00:42:00,
2013-04-20 17:52:00,60.0,29.0,-100.00,WNW,283,13.0,19.0,31,0.00,,,0.00,663.000000,,2013-04-21 00:52:00,
2013-04-20 18:21:00,58.0,32.0,-100.00,WNW,288,14.0,21.0,37,0.00,,,0.00,474.000000,,2013-04-21 01:21:00,
2013-04-20 18:31:00,58.0,32.0,-100.00,WNW,288,14.0,21.0,37,0.00,,,0.00,474.000000,,2013-04-21 01:31:00,
2013-04-20 18:41:00,58.0,32.0,-100.00,WNW,288,14.0,21.0,37,0.00,,,0.00,474.000000,,2013-04-21 01:41:00,
2013-04-20 18:52:00,58.0,32.0,-100.00,WNW,288,14.0,21.0,37,0.00,,,0.00,474.000000,,2013-04-21 01:52:00,
2013-04-20 19:21:00,56.0,33.0,-100.00,WNW,283,11.0,20.0,41,0.00,,,0.00,270.000000,,2013-04-21 02:21:00,
2013-04-20 19:32:00,56.0,33.0,-100.00,WNW,283,11.0,20.0,41,0.00,,,0.00,270.000000,,2013-04-21 02:32:00,
2013-04-20 19:41:00,56.0,33.0,-100.00,WNW,283,11.0,20.0,41,0.00,,,0.00,270.000000,,2013-04-21 02:41:00,
2013-04-20 19:51:00,56.0,33.0,-100.00,WNW,283,11.0,20.0,41,0.00,,,0.00,270.000000,,2013-04-21 02:51:00,
2013-04-20 20:21:00,50.0,34.0,-100.00,WNW,283,7.0,16.0,55,0.00,,,0.00,75.000000,,2013-04-21 03:21:00,
2013-04-20 20:32:00,50.0,34.0,-100.00,WNW,283,7.0,16.0,55,0.00,,,0.00,75.000000,,2013-04-21 03:32:00,
2013-04-20 20:42:00,50.0,34.0,-100.00,WNW,283,7.0,16.0,55,0.00,,,0.00,75.000000,,2013-04-21 03:42:00,
2013-04-20 20:52:00,50.0,34.0,-100.00,WNW,283,7.0,16.0,55,0.00,,,0.00,75.000000,,2013-04-21 03:52:00,
2013-04-20 21:22:00,46.0,35.0,-100.00,WNW,282,5.0,8.0,65,0.00,,,0.00,2.000000,,2013-04-21 04:22:00,
2013-04-20 21:33:00,46.0,35.0,-100.00,WNW,282,5.0,8.0,65,0.00,,,0.00,2.000000,,2013-04-21 04:33:00,
2013-04-20 21:42:00,46.0,35.0,-100.00,WNW,282,5.0,8.0,65,0.00,,,0.00,2.000000,,2013-04-21 04:42:00,
2013-04-20 21:52:00,46.0,35.0,-100.00,WNW,282,5.0,8.0,65,0.00,,,0.00,2.000000,,2013-04-21 04:52:00,
2013-04-20 22:22:00,44.0,36.0,-100.00,North,351,4.0,12.0,72,0.00,,,0.00,1.000000,,2013-04-21 05:22:00,
2013-04-20 22:32:00,44.0,36.0,-100.00,North,351,4.0,12.0,72,0.00,,,0.00,1.000000,,2013-04-21 05:32:00,
2013-04-20 22:42:00,44.0,36.0,-100.00,North,351,4.0,12.0,72,0.00,,,0.00,1.000000,,2013-04-21 05:42:00,
2013-04-20 22:52:00,44.0,36.0,-100.00,North,351,4.0,12.0,72,0.00,,,0.00,1.000000,,2013-04-21 05:52:00,
2013-04-20 23:21:00,41.0,34.0,-100.00,ESE,104,3.0,6.0,77,0.00,,,0.00,1.000000,,2013-04-21 06:21:00,
2013-04-20 23:32:00,41.0,34.0,-100.00,ESE,104,3.0,6.0,77,0.00,,,0.00,1.000000,,2013-04-21 06:32:00,
2013-04-20 23:42:00,41.0,34.0,-100.00,ESE,104,3.0,6.0,77,0.00,,,0.00,1.000000,,2013-04-21 06:42:00,
2013-04-20 23:51:00,41.0,34.0,-100.00,ESE,104,3.0,6.0,77,0.00,,,0.00,1.000000,,2013-04-21 06:51:00,